Time;durP1;ratioP1;P1;durP2;ratioP2;P2;SDS_P1;SDS_P2;PMS_P1;PMS_P2;Temp;Humidity;BMP_temperature;BMP_pressure;BME280_temperature;BME280_humidity;BME280_pressure;Samples;Min_cycle;Max_cycle;Signal;HPM_P1;HPM_P2
2021/03/23 00:01:01;;;;;;;15.70;10.30;;;5.50;99.90;;;;;;5029538;28;20460;-66
2021/03/23 00:03:30;;;;;;;13.17;9.53;;;5.50;99.90;;;;;;5023395;28;20441;-67
2021/03/23 00:05:56;;;;;;;12.03;8.17;;;5.50;99.90;;;;;;5027156;28;20444;-67
2021/03/23 00:08:51;;;;;;;13.63;9.17;;;5.50;99.90;;;;;;5031556;28;20451;-66
2021/03/23 00:11:47;;;;;;;14.43;8.77;;;5.50;99.90;;;;;;5031289;28;20444;-67
2021/03/23 00:14:22;;;;;;;12.53;8.70;;;5.50;99.90;;;;;;5014728;28;20429;-67
2021/03/23 00:16:58;;;;;;;13.40;8.67;;;5.50;99.90;;;;;;4984652;28;20452;-67
2021/03/23 00:19:24;;;;;;;16.00;8.40;;;5.40;99.90;;;;;;5021141;28;20474;-68
2021/03/23 00:21:49;;;;;;;15.03;9.10;;;5.40;99.90;;;;;;5020158;28;20461;-67
2021/03/23 00:24:15;;;;;;;14.63;8.63;;;5.40;99.90;;;;;;5030401;28;20182;-66
2021/03/23 00:26:40;;;;;;;13.97;9.37;;;5.50;99.90;;;;;;5015800;28;20678;-67
2021/03/23 00:29:06;;;;;;;16.90;8.50;;;5.50;99.90;;;;;;5030728;28;20171;-67
2021/03/23 00:31:33;;;;;;;12.37;9.70;;;5.50;99.90;;;;;;5021657;28;20190;-67
2021/03/23 00:34:01;;;;;;;13.83;9.23;;;5.60;99.90;;;;;;5013915;28;20665;-66
2021/03/23 00:36:32;;;;;;;9.63;8.17;;;5.50;99.90;;;;;;5029349;28;20471;-66
2021/03/23 00:39:00;;;;;;;14.70;10.33;;;5.50;99.90;;;;;;5017585;28;20435;-67
2021/03/23 00:41:25;;;;;;;15.00;10.20;;;5.50;99.90;;;;;;5031950;28;20540;-67
2021/03/23 00:43:51;;;;;;;12.50;8.80;;;5.50;99.90;;;;;;5030429;28;20456;-67
2021/03/23 00:46:17;;;;;;;17.00;9.37;;;5.60;99.90;;;;;;5023961;28;20224;-67
2021/03/23 00:48:42;;;;;;;18.13;9.53;;;5.50;99.90;;;;;;5022816;28;20182;-68
2021/03/23 00:51:08;;;;;;;10.83;9.30;;;5.50;99.90;;;;;;5027685;28;20252;-67
2021/03/23 00:53:33;;;;;;;15.30;11.70;;;5.50;99.90;;;;;;5016330;28;20178;-67
2021/03/23 00:56:01;;;;;;;14.17;9.27;;;5.50;99.90;;;;;;5012832;28;20195;-66
2021/03/23 00:58:27;;;;;;;17.03;10.07;;;5.50;99.90;;;;;;5023816;28;20174;-67
2021/03/23 01:00:52;;;;;;;15.07;10.40;;;5.50;99.90;;;;;;5014087;28;20873;-67
2021/03/23 01:03:18;;;;;;;12.47;8.63;;;5.50;99.90;;;;;;5014101;28;20175;-67
2021/03/23 01:05:46;;;;;;;14.40;9.93;;;5.40;99.90;;;;;;5021193;28;20186;-67
2021/03/23 01:08:12;;;;;;;17.07;9.73;;;5.50;99.90;;;;;;5019082;28;20650;-67
2021/03/23 01:10:37;;;;;;;17.13;10.70;;;5.40;99.90;;;;;;5012400;28;20524;-67
2021/03/23 01:13:03;;;;;;;15.20;10.93;;;5.40;99.90;;;;;;5016059;28;20206;-67
2021/03/23 01:15:31;;;;;;;15.03;10.73;;;5.40;99.90;;;;;;5028662;28;20178;-67
2021/03/23 01:17:57;;;;;;;18.00;10.83;;;5.40;99.90;;;;;;5021668;28;20777;-66
2021/03/23 01:20:26;;;;;;;16.60;12.53;;;5.40;99.90;;;;;;5021487;28;20466;-68
2021/03/23 01:22:51;;;;;;;21.20;12.67;;;5.30;99.90;;;;;;5026141;28;20441;-67
2021/03/23 01:25:18;;;;;;;20.43;11.07;;;5.40;99.90;;;;;;5015112;28;20425;-67
2021/03/23 01:27:43;;;;;;;20.57;12.50;;;5.50;99.90;;;;;;5016457;28;20170;-67
2021/03/23 01:30:10;;;;;;;21.00;13.07;;;5.40;99.90;;;;;;5022946;28;20427;-68
2021/03/23 01:32:37;;;;;;;21.30;12.50;;;5.40;99.90;;;;;;5020240;28;20175;-67
2021/03/23 01:35:03;;;;;;;17.73;12.07;;;5.50;99.90;;;;;;5022731;28;20429;-67
2021/03/23 01:37:28;;;;;;;17.33;11.00;;;5.60;99.90;;;;;;5013202;28;20524;-67
2021/03/23 01:39:54;;;;;;;15.40;11.50;;;5.60;99.90;;;;;;5023127;28;20650;-67
2021/03/23 01:42:20;;;;;;;16.20;11.67;;;5.60;99.90;;;;;;5014585;28;20202;-68
2021/03/23 01:45:07;;;;;;;16.90;12.77;;;5.50;99.90;;;;;;5012135;28;20179;-67
2021/03/23 01:47:32;;;;;;;17.07;11.67;;;5.50;99.90;;;;;;5027551;28;20464;-67
2021/03/23 01:49:58;;;;;;;20.40;12.87;;;5.40;99.90;;;;;;5023835;28;20435;-66
2021/03/23 01:52:27;;;;;;;19.23;12.93;;;5.40;99.90;;;;;;5022986;28;20175;-67
2021/03/23 01:54:59;;;;;;;19.27;12.50;;;5.50;99.90;;;;;;5021962;28;20178;-67
2021/03/23 01:57:26;;;;;;;19.63;10.67;;;5.40;99.90;;;;;;5030655;28;20526;-67
2021/03/23 01:59:56;;;;;;;17.67;10.90;;;5.40;99.90;;;;;;5014158;28;20433;-67
2021/03/23 02:02:25;;;;;;;23.87;11.60;;;5.50;99.90;;;;;;5023699;28;20456;-68
2021/03/23 02:04:51;;;;;;;15.87;11.40;;;5.40;99.90;;;;;;5013139;28;20430;-66
2021/03/23 02:07:17;;;;;;;19.60;14.30;;;5.40;99.90;;;;;;5011368;28;20454;-67
2021/03/23 02:09:43;;;;;;;16.50;10.93;;;5.40;99.90;;;;;;5025142;28;20512;-67
2021/03/23 02:12:12;;;;;;;17.43;12.40;;;5.40;99.90;;;;;;5015941;28;20206;-67
2021/03/23 02:14:44;;;;;;;17.80;11.73;;;5.40;99.90;;;;;;5028518;28;20440;-68
2021/03/23 02:17:13;;;;;;;22.70;13.00;;;5.40;99.90;;;;;;5029137;28;20530;-67
2021/03/23 02:19:38;;;;;;;17.77;11.90;;;5.40;99.90;;;;;;5027713;28;20429;-68
2021/03/23 02:22:04;;;;;;;20.13;12.83;;;5.30;99.90;;;;;;5026445;28;20976;-67
2021/03/23 02:24:30;;;;;;;19.03;12.03;;;5.30;99.90;;;;;;5012879;28;20171;-67
2021/03/23 02:26:55;;;;;;;17.73;11.70;;;5.40;99.90;;;;;;5011284;28;20198;-67
2021/03/23 02:29:21;;;;;;;20.70;12.17;;;5.40;99.90;;;;;;5011092;28;20171;-68
2021/03/23 02:31:52;;;;;;;16.13;12.10;;;5.40;99.90;;;;;;5016300;28;20716;-68
2021/03/23 02:34:23;;;;;;;19.10;11.93;;;5.40;99.90;;;;;;5019365;28;20190;-67
2021/03/23 02:36:51;;;;;;;19.20;12.70;;;5.30;99.90;;;;;;5018883;28;20477;-68
2021/03/23 02:39:26;;;;;;;18.60;12.97;;;5.30;99.90;;;;;;5018872;28;20492;-67
2021/03/23 02:41:57;;;;;;;18.00;14.57;;;5.30;99.90;;;;;;5017671;28;20904;-67
2021/03/23 02:44:25;;;;;;;20.73;13.03;;;5.30;99.90;;;;;;5019302;28;20434;-67
2021/03/23 02:46:51;;;;;;;19.93;14.10;;;5.30;99.90;;;;;;5010688;28;20485;-67
2021/03/23 02:49:17;;;;;;;24.47;14.00;;;5.30;99.90;;;;;;5016848;28;20456;-67
2021/03/23 02:51:42;;;;;;;24.53;15.07;;;5.20;99.90;;;;;;5012658;28;20815;-67
2021/03/23 02:54:08;;;;;;;24.80;14.83;;;5.20;99.90;;;;;;5023623;28;20503;-67
2021/03/23 02:56:34;;;;;;;24.33;15.00;;;5.30;99.90;;;;;;5019897;28;20198;-67
2021/03/23 02:58:59;;;;;;;23.40;14.73;;;5.30;99.90;;;;;;4993257;28;20776;-67
2021/03/23 03:01:25;;;;;;;23.40;15.20;;;5.20;99.90;;;;;;5026000;28;20281;-68
2021/03/23 03:03:51;;;;;;;23.37;16.10;;;5.20;99.90;;;;;;5011459;28;20178;-68
2021/03/23 03:06:17;;;;;;;30.30;18.07;;;5.20;99.90;;;;;;5000560;28;20452;-66
2021/03/23 03:08:42;;;;;;;23.53;15.80;;;5.20;99.90;;;;;;5013839;28;20179;-67
2021/03/23 03:11:08;;;;;;;29.00;17.10;;;5.20;99.90;;;;;;5021754;28;20191;-67
2021/03/23 03:13:35;;;;;;;25.10;17.40;;;5.20;99.90;;;;;;5026508;28;20558;-68
2021/03/23 03:16:01;;;;;;;27.47;16.40;;;5.20;99.90;;;;;;5014685;28;20205;-67
2021/03/23 03:18:27;;;;;;;27.50;17.30;;;5.20;99.90;;;;;;5016657;28;21215;-67
2021/03/23 03:20:55;;;;;;;29.73;20.30;;;5.20;99.90;;;;;;5020554;28;20472;-67
2021/03/23 03:23:21;;;;;;;30.73;19.97;;;5.10;99.90;;;;;;5025851;28;20496;-67
2021/03/23 03:25:48;;;;;;;29.33;18.60;;;5.20;99.90;;;;;;5029142;28;21027;-67
2021/03/23 03:28:14;;;;;;;29.30;20.63;;;5.30;99.90;;;;;;5023401;28;20420;-67
2021/03/23 03:30:40;;;;;;;32.00;19.10;;;5.30;99.90;;;;;;5029972;28;20421;-67
2021/03/23 03:33:08;;;;;;;30.57;19.83;;;5.30;99.90;;;;;;5022648;28;20444;-67
2021/03/23 03:35:36;;;;;;;28.03;18.40;;;5.30;99.90;;;;;;5010454;28;20501;-67
2021/03/23 03:38:04;;;;;;;28.27;18.00;;;5.30;99.90;;;;;;5015507;28;20437;-67
2021/03/23 03:40:34;;;;;;;26.60;19.57;;;5.30;99.90;;;;;;5025699;28;20547;-66
2021/03/23 03:43:00;;;;;;;28.43;19.43;;;5.30;99.90;;;;;;5014921;28;20433;-67
2021/03/23 03:45:27;;;;;;;31.20;19.63;;;5.30;99.90;;;;;;5029232;28;20453;-66
2021/03/23 03:47:54;;;;;;;28.03;20.80;;;5.30;99.90;;;;;;5017878;28;20175;-66
2021/03/23 03:50:21;;;;;;;28.00;20.20;;;5.20;99.90;;;;;;5028808;28;20425;-66
2021/03/23 03:52:48;;;;;;;26.70;18.80;;;5.20;99.90;;;;;;5026004;28;20421;-66
2021/03/23 03:55:16;;;;;;;26.23;19.40;;;5.20;99.90;;;;;;5020432;28;20452;-67
2021/03/23 03:57:42;;;;;;;34.33;19.10;;;5.30;99.90;;;;;;5031061;28;20512;-67
2021/03/23 04:00:09;;;;;;;24.77;16.63;;;5.30;99.90;;;;;;5014588;28;20464;-67
2021/03/23 04:02:35;;;;;;;26.87;19.17;;;5.20;99.90;;;;;;5013117;28;20557;-66
2021/03/23 04:05:01;;;;;;;32.43;19.10;;;5.20;99.90;;;;;;5020309;28;20511;-66
2021/03/23 04:07:26;;;;;;;32.63;19.33;;;5.20;99.90;;;;;;5028039;28;20336;-66
2021/03/23 04:09:52;;;;;;;28.20;19.70;;;5.20;99.90;;;;;;5019507;28;20186;-66
2021/03/23 04:12:18;;;;;;;32.53;20.60;;;5.20;99.90;;;;;;5026084;28;20178;-67
2021/03/23 04:14:43;;;;;;;29.10;19.87;;;5.20;99.90;;;;;;5032969;28;20240;-66
2021/03/23 04:17:09;;;;;;;32.53;19.17;;;5.20;99.90;;;;;;5021522;28;20964;-66
2021/03/23 04:19:35;;;;;;;30.33;19.73;;;5.30;99.90;;;;;;5025423;28;20228;-66
2021/03/23 04:22:00;;;;;;;33.03;20.47;;;5.30;99.90;;;;;;5026933;28;20206;-66
2021/03/23 04:24:26;;;;;;;30.20;18.20;;;5.30;99.90;;;;;;5018449;28;20657;-66
2021/03/23 04:26:51;;;;;;;31.07;20.30;;;5.20;99.90;;;;;;5022746;28;20202;-66
2021/03/23 04:29:17;;;;;;;30.60;18.87;;;5.30;99.90;;;;;;5019086;28;20170;-66
2021/03/23 04:31:44;;;;;;;28.60;18.33;;;5.30;99.90;;;;;;5032497;28;20677;-66
2021/03/23 04:34:12;;;;;;;28.20;18.27;;;5.20;99.90;;;;;;5029820;28;20813;-67
2021/03/23 04:36:38;;;;;;;30.43;18.83;;;5.30;99.90;;;;;;5041933;23;20492;-62
2021/03/23 04:39:06;;;;;;;29.80;18.80;;;5.30;99.90;;;;;;5012156;28;20821;-63
2021/03/23 04:41:31;;;;;;;29.70;18.77;;;5.30;99.90;;;;;;5012800;28;20461;-63
2021/03/23 04:43:57;;;;;;;29.27;18.97;;;5.20;99.90;;;;;;5012300;28;20451;-64
2021/03/23 04:46:27;;;;;;;28.97;20.10;;;5.10;99.90;;;;;;5012558;28;20221;-65
2021/03/23 04:48:52;;;;;;;31.33;19.80;;;5.10;99.90;;;;;;5011343;28;20225;-66
2021/03/23 04:51:20;;;;;;;33.27;19.13;;;5.20;99.90;;;;;;5008939;28;20461;-65
2021/03/23 04:53:46;;;;;;;33.40;21.57;;;5.20;99.90;;;;;;4997404;28;20175;-65
2021/03/23 04:56:24;;;;;;;32.33;19.77;;;5.20;99.90;;;;;;5012307;28;20898;-65
2021/03/23 04:58:50;;;;;;;30.07;19.97;;;5.20;99.90;;;;;;4997297;28;20434;-66
2021/03/23 05:01:16;;;;;;;27.30;19.40;;;5.20;99.90;;;;;;5011622;28;20468;-65
2021/03/23 05:03:42;;;;;;;35.60;20.30;;;5.30;99.90;;;;;;5011662;28;20179;-66
2021/03/23 05:06:09;;;;;;;28.00;19.50;;;5.30;99.90;;;;;;5012115;28;20206;-65
2021/03/23 05:08:36;;;;;;;29.10;19.00;;;5.40;99.90;;;;;;5010667;28;20472;-66
2021/03/23 05:11:03;;;;;;;24.73;18.10;;;5.40;99.90;;;;;;5010155;28;20428;-66
2021/03/23 05:13:28;;;;;;;27.00;17.80;;;5.30;99.90;;;;;;5006683;28;20433;-66
2021/03/23 05:15:54;;;;;;;33.07;18.90;;;5.30;99.90;;;;;;5012022;28;20860;-65
2021/03/23 05:18:19;;;;;;;31.30;18.53;;;5.30;99.90;;;;;;5011616;28;20174;-64
2021/03/23 05:20:45;;;;;;;28.93;20.20;;;5.30;99.90;;;;;;5010624;28;20198;-66
2021/03/23 05:23:14;;;;;;;29.00;17.37;;;5.30;99.90;;;;;;5007681;28;20590;-65
2021/03/23 05:25:40;;;;;;;28.20;18.70;;;5.30;99.90;;;;;;5011013;28;20175;-66
2021/03/23 05:28:06;;;;;;;30.37;18.77;;;5.30;99.90;;;;;;5011093;28;20446;-64
2021/03/23 05:30:31;;;;;;;28.60;19.57;;;5.40;99.90;;;;;;4993303;28;20492;-66
2021/03/23 05:32:57;;;;;;;27.93;18.97;;;5.50;99.90;;;;;;5011317;28;20174;-66
2021/03/23 05:35:23;;;;;;;26.33;17.90;;;5.50;99.90;;;;;;5010453;28;20558;-65
2021/03/23 05:37:49;;;;;;;28.93;19.43;;;5.50;99.90;;;;;;5009024;28;20214;-64
2021/03/23 05:40:21;;;;;;;31.33;19.67;;;5.50;99.90;;;;;;5010603;28;20181;-65
2021/03/23 05:42:56;;;;;;;29.17;18.53;;;5.60;99.90;;;;;;5011440;28;20438;-64
2021/03/23 05:45:33;;;;;;;29.10;17.70;;;5.60;99.90;;;;;;5011585;28;20433;-66
2021/03/23 05:48:14;;;;;;;28.33;19.80;;;5.60;99.90;;;;;;5011295;28;20445;-65
2021/03/23 05:50:43;;;;;;;32.00;18.23;;;5.60;99.90;;;;;;5006058;28;20460;-65
2021/03/23 05:53:21;;;;;;;29.20;21.10;;;5.70;99.90;;;;;;5011245;28;20509;-66
2021/03/23 05:55:48;;;;;;;29.87;19.07;;;5.60;99.90;;;;;;5011055;28;20799;-65
2021/03/23 05:58:24;;;;;;;31.33;20.93;;;5.70;99.90;;;;;;5010383;28;20434;-66
2021/03/23 06:01:01;;;;;;;31.87;19.23;;;5.70;99.90;;;;;;5010671;28;20449;-65
2021/03/23 06:03:41;;;;;;;28.80;18.57;;;5.60;99.90;;;;;;5011356;28;20567;-66
2021/03/23 06:06:34;;;;;;;31.50;19.60;;;5.60;99.90;;;;;;5010746;28;20959;-65
2021/03/23 06:09:00;;;;;;;47.03;21.63;;;5.70;99.90;;;;;;5010697;28;20437;-65
2021/03/23 06:11:34;;;;;;;31.80;20.40;;;5.60;99.90;;;;;;5006914;28;20434;-65
2021/03/23 06:14:18;;;;;;;31.90;20.07;;;5.60;99.90;;;;;;5006933;28;20312;-66
2021/03/23 06:16:54;;;;;;;26.57;17.47;;;5.70;99.90;;;;;;4996524;28;20454;-66
2021/03/23 06:20:03;;;;;;;31.70;20.10;;;5.70;99.90;;;;;;5006991;28;20858;-65
2021/03/23 06:22:37;;;;;;;26.80;19.33;;;5.80;99.90;;;;;;4957786;28;20872;-65
2021/03/23 06:25:31;;;;;;;29.27;19.43;;;5.80;99.90;;;;;;4987521;28;20903;-65
2021/03/23 06:28:11;;;;;;;29.20;18.80;;;5.80;99.90;;;;;;4992776;28;20461;-66
2021/03/23 06:31:14;;;;;;;28.00;19.30;;;5.80;99.90;;;;;;4995370;28;20438;-66
2021/03/23 06:33:39;;;;;;;28.70;19.40;;;6.00;99.90;;;;;;5005846;28;20506;-64
2021/03/23 06:36:17;;;;;;;29.23;18.23;;;6.00;99.90;;;;;;5002933;28;20458;-66
2021/03/23 06:38:43;;;;;;;34.27;23.10;;;6.00;99.90;;;;;;5005034;28;20170;-66
2021/03/23 06:41:16;;;;;;;30.13;21.33;;;6.10;99.90;;;;;;4996923;28;20461;-65
2021/03/23 06:43:52;;;;;;;33.80;21.73;;;6.10;99.90;;;;;;4997104;28;20584;-66
2021/03/23 06:46:41;;;;;;;36.37;23.00;;;6.10;99.90;;;;;;5004173;28;20449;-66
2021/03/23 06:49:16;;;;;;;35.20;20.70;;;6.20;99.90;;;;;;4992116;28;20949;-64
2021/03/23 06:51:57;;;;;;;41.10;23.17;;;6.10;99.90;;;;;;5009812;28;20438;-64
2021/03/23 06:54:22;;;;;;;33.93;21.07;;;6.10;99.90;;;;;;5006334;28;21307;-65
2021/03/23 06:57:10;;;;;;;40.10;24.80;;;6.10;99.90;;;;;;5003887;28;20445;-64
2021/03/23 06:59:51;;;;;;;33.43;21.83;;;6.20;99.90;;;;;;5009830;28;20193;-64
2021/03/23 07:02:30;;;;;;;31.60;21.17;;;6.30;99.90;;;;;;5010443;28;20548;-65
2021/03/23 07:05:16;;;;;;;35.03;21.13;;;6.30;99.90;;;;;;5010474;28;20432;-65
2021/03/23 07:07:55;;;;;;;36.27;22.13;;;6.30;99.90;;;;;;5010190;28;20458;-63
2021/03/23 07:10:30;;;;;;;32.33;21.37;;;6.40;99.90;;;;;;4998100;28;20951;-65
2021/03/23 07:12:56;;;;;;;31.60;21.50;;;6.50;99.90;;;;;;5009419;28;21014;-65
2021/03/23 07:15:24;;;;;;;30.47;21.63;;;6.50;99.90;;;;;;5004935;28;20434;-65
2021/03/23 07:17:54;;;;;;;32.70;20.93;;;6.60;99.90;;;;;;5011671;28;20282;-63
2021/03/23 07:20:28;;;;;;;36.00;22.70;;;6.60;99.90;;;;;;4984803;28;20430;-65
2021/03/23 07:22:53;;;;;;;32.10;21.27;;;6.70;99.90;;;;;;5009165;28;20457;-64
2021/03/23 07:25:42;;;;;;;36.20;22.10;;;6.70;99.90;;;;;;4993235;28;20454;-65
2021/03/23 07:28:27;;;;;;;32.33;21.00;;;6.70;99.90;;;;;;5006901;28;20219;-65
2021/03/23 07:31:29;;;;;;;31.67;20.63;;;6.90;99.90;;;;;;5011505;28;20471;-64
2021/03/23 07:34:04;;;;;;;31.33;21.10;;;6.90;99.90;;;;;;5005516;28;20433;-64
2021/03/23 07:36:42;;;;;;;36.87;23.77;;;7.00;99.90;;;;;;5013111;28;20471;-66
2021/03/23 07:39:27;;;;;;;32.10;21.07;;;7.10;99.90;;;;;;5008874;28;20440;-65
2021/03/23 07:41:58;;;;;;;31.10;21.90;;;7.20;99.90;;;;;;5013046;28;20472;-65
2021/03/23 07:44:50;;;;;;;31.00;21.77;;;7.30;99.90;;;;;;5009704;28;20425;-65
2021/03/23 07:47:44;;;;;;;34.00;20.20;;;7.40;99.90;;;;;;5013332;28;20455;-65
2021/03/23 07:50:22;;;;;;;38.03;24.10;;;7.40;99.90;;;;;;5009060;28;20932;-65
2021/03/23 07:52:54;;;;;;;34.30;20.50;;;7.50;99.90;;;;;;5013132;28;20574;-65
2021/03/23 07:55:23;;;;;;;31.17;21.77;;;7.40;99.90;;;;;;5011736;28;20476;-65
2021/03/23 07:58:13;;;;;;;36.60;22.27;;;7.40;99.90;;;;;;5013294;28;20588;-65
2021/03/23 08:01:03;;;;;;;30.50;20.63;;;7.50;99.90;;;;;;5011051;28;20548;-65
2021/03/23 08:03:57;;;;;;;32.60;21.47;;;7.70;99.90;;;;;;5012826;28;21008;-65
2021/03/23 08:06:52;;;;;;;32.10;21.47;;;7.80;99.90;;;;;;5007642;28;20446;-65
2021/03/23 08:09:23;;;;;;;40.40;21.97;;;7.80;99.90;;;;;;5010391;28;20440;-65
2021/03/23 08:12:10;;;;;;;32.10;20.00;;;7.70;99.90;;;;;;5003622;28;20525;-64
2021/03/23 08:14:58;;;;;;;29.20;20.87;;;7.80;99.90;;;;;;5000116;28;20442;-64
2021/03/23 08:17:47;;;;;;;34.77;20.57;;;7.70;99.90;;;;;;5008094;28;20996;-65
2021/03/23 08:20:31;;;;;;;31.47;20.20;;;7.60;99.90;;;;;;5012063;28;20434;-65
2021/03/23 08:22:59;;;;;;;32.17;21.70;;;7.80;99.90;;;;;;5012977;28;21106;-65
2021/03/23 08:25:48;;;;;;;30.33;19.27;;;7.80;99.90;;;;;;5010536;28;20484;-65
2021/03/23 08:28:26;;;;;;;33.43;21.07;;;7.80;99.90;;;;;;5012379;28;20548;-63
2021/03/23 08:31:31;;;;;;;32.03;20.27;;;7.90;99.90;;;;;;5012002;28;20433;-64
2021/03/23 08:34:31;;;;;;;32.20;20.17;;;8.10;99.90;;;;;;5012862;28;20433;-65
2021/03/23 08:37:18;;;;;;;30.07;19.77;;;8.30;99.90;;;;;;5000256;28;20469;-65
2021/03/23 08:40:04;;;;;;;31.80;20.40;;;8.50;99.90;;;;;;5012091;28;20445;-65
2021/03/23 08:42:31;;;;;;;28.70;20.40;;;8.40;99.90;;;;;;5011125;28;20473;-64
2021/03/23 08:45:15;;;;;;;31.00;19.93;;;8.60;99.90;;;;;;5012192;28;20449;-65
2021/03/23 08:47:50;;;;;;;33.03;18.80;;;8.80;99.90;;;;;;5006725;28;20488;-65
2021/03/23 08:50:23;;;;;;;30.30;19.73;;;8.80;99.90;;;;;;4993835;28;20436;-65
2021/03/23 08:52:54;;;;;;;29.73;19.13;;;8.80;99.90;;;;;;5008672;28;21002;-65
2021/03/23 08:55:29;;;;;;;22.43;16.80;;;8.80;99.90;;;;;;5009126;28;20492;-65
2021/03/23 08:58:08;;;;;;;30.30;19.93;;;8.90;99.90;;;;;;5008743;28;20449;-64
2021/03/23 09:00:36;;;;;;;22.90;16.77;;;9.00;99.90;;;;;;5000895;28;20545;-65
2021/03/23 09:03:40;;;;;;;28.10;17.80;;;9.10;99.90;;;;;;5011999;28;20425;-65
2021/03/23 09:06:07;;;;;;;23.77;14.40;;;9.10;99.90;;;;;;5010426;28;20461;-65
2021/03/23 09:08:39;;;;;;;22.23;15.57;;;9.40;99.90;;;;;;5002674;28;20520;-65
2021/03/23 09:11:12;;;;;;;21.53;14.67;;;9.50;99.90;;;;;;5011003;28;20444;-65
2021/03/23 09:13:37;;;;;;;22.70;15.90;;;9.40;99.90;;;;;;5010357;28;20430;-64
2021/03/23 09:16:25;;;;;;;26.60;18.13;;;9.70;99.90;;;;;;5010113;28;20488;-65
2021/03/23 09:19:09;;;;;;;18.77;13.30;;;9.60;99.90;;;;;;5000205;28;20202;-65
2021/03/23 09:21:57;;;;;;;14.70;10.63;;;9.30;99.90;;;;;;4993432;28;20461;-65
2021/03/23 09:24:44;;;;;;;14.37;9.73;;;9.30;99.90;;;;;;5011586;28;20448;-65
2021/03/23 09:27:31;;;;;;;14.20;10.30;;;9.20;99.90;;;;;;5011785;28;20968;-65
2021/03/23 09:29:57;;;;;;;18.10;11.17;;;9.10;99.90;;;;;;5009882;28;20936;-64
2021/03/23 09:32:28;;;;;;;21.13;11.50;;;9.00;99.90;;;;;;5011202;28;20496;-66
2021/03/23 09:35:22;;;;;;;17.70;11.30;;;9.10;99.90;;;;;;5012066;28;20563;-65
2021/03/23 09:37:58;;;;;;;17.33;11.17;;;9.20;99.90;;;;;;5011166;28;20839;-65
2021/03/23 09:40:34;;;;;;;16.20;11.53;;;9.40;99.90;;;;;;5003032;28;20810;-65
2021/03/23 09:43:03;;;;;;;15.80;12.17;;;9.20;99.90;;;;;;5011115;28;20849;-65
2021/03/23 09:45:28;;;;;;;14.27;10.53;;;9.50;99.90;;;;;;5011380;28;20433;-65
2021/03/23 09:47:59;;;;;;;10.30;7.90;;;9.50;99.90;;;;;;5008757;28;20442;-65
2021/03/23 09:50:43;;;;;;;10.30;6.50;;;9.40;99.90;;;;;;5003555;28;20183;-65
2021/03/23 09:53:28;;;;;;;11.70;8.27;;;9.30;99.90;;;;;;5009719;28;20799;-65
2021/03/23 09:55:53;;;;;;;12.90;8.57;;;9.50;99.90;;;;;;4998534;28;20422;-65
2021/03/23 09:58:26;;;;;;;11.30;8.47;;;9.70;99.90;;;;;;5010740;28;20818;-65
2021/03/23 10:00:53;;;;;;;9.87;6.80;;;9.70;99.90;;;;;;5010117;28;20278;-64
2021/03/23 10:03:33;;;;;;;8.47;6.27;;;9.80;99.90;;;;;;5010406;28;20461;-65
2021/03/23 10:06:05;;;;;;;8.50;6.57;;;9.80;99.90;;;;;;5010808;28;20426;-66
2021/03/23 10:08:34;;;;;;;9.00;6.90;;;9.80;99.90;;;;;;5009874;28;20956;-65
2021/03/23 10:11:12;;;;;;;7.23;6.43;;;9.80;99.90;;;;;;5009914;28;20500;-64
2021/03/23 10:13:43;;;;;;;7.03;6.03;;;9.90;99.90;;;;;;5011185;28;20937;-65
2021/03/23 10:16:24;;;;;;;12.93;6.47;;;9.70;99.90;;;;;;4993319;28;20445;-64
2021/03/23 10:18:49;;;;;;;9.10;6.50;;;9.60;99.90;;;;;;5011281;28;21006;-65
2021/03/23 10:21:16;;;;;;;7.33;6.43;;;9.50;99.90;;;;;;5010795;28;20477;-65
2021/03/23 10:23:55;;;;;;;5.80;5.13;;;9.30;99.90;;;;;;5011409;28;20163;-65
2021/03/23 10:26:32;;;;;;;7.50;5.87;;;9.20;99.90;;;;;;5011204;28;20449;-65
2021/03/23 10:29:10;;;;;;;8.07;6.10;;;9.20;99.90;;;;;;5011098;28;20472;-65
2021/03/23 10:31:40;;;;;;;6.33;5.57;;;9.20;99.90;;;;;;5011076;28;20857;-65
2021/03/23 10:34:25;;;;;;;10.10;6.40;;;9.30;99.90;;;;;;5010616;28;20438;-65
2021/03/23 10:36:55;;;;;;;6.10;4.97;;;9.40;99.90;;;;;;5010786;28;20465;-65
2021/03/23 10:39:37;;;;;;;9.70;5.50;;;9.60;99.90;;;;;;5010819;28;20789;-65
2021/03/23 10:42:18;;;;;;;6.20;4.77;;;9.50;99.90;;;;;;5010874;28;20895;-64
2021/03/23 10:44:44;;;;;;;10.37;5.10;;;9.50;99.90;;;;;;5010290;28;20421;-65
2021/03/23 10:47:38;;;;;;;4.53;4.10;;;9.50;99.90;;;;;;5010017;28;20457;-65
2021/03/23 10:50:13;;;;;;;6.00;4.67;;;9.70;99.90;;;;;;5001867;28;20975;-64
2021/03/23 10:52:39;;;;;;;7.80;5.70;;;9.60;99.90;;;;;;5000076;28;20951;-64
2021/03/23 10:55:19;;;;;;;6.03;4.80;;;9.60;99.90;;;;;;5004019;28;20516;-64
2021/03/23 10:57:45;;;;;;;6.30;5.17;;;9.60;99.90;;;;;;5010265;28;20505;-64
2021/03/23 11:00:21;;;;;;;5.40;4.90;;;9.60;99.90;;;;;;5009943;28;20487;-64
2021/03/23 11:02:47;;;;;;;6.20;5.07;;;9.70;99.90;;;;;;5001746;28;20496;-64
2021/03/23 11:05:16;;;;;;;6.07;5.43;;;9.50;99.90;;;;;;5008827;28;20476;-65
2021/03/23 11:07:51;;;;;;;15.13;6.23;;;9.50;99.90;;;;;;5002766;28;20195;-64
2021/03/23 11:10:21;;;;;;;6.30;5.70;;;9.50;99.90;;;;;;5013803;28;20986;-64
2021/03/23 11:12:47;;;;;;;12.50;6.97;;;9.50;99.90;;;;;;5007439;28;20470;-66
2021/03/23 11:15:14;;;;;;;8.40;6.47;;;9.60;99.90;;;;;;5011524;28;20469;-64
2021/03/23 11:17:47;;;;;;;9.43;7.63;;;9.70;99.90;;;;;;5016453;28;20488;-64
2021/03/23 11:20:40;;;;;;;11.50;8.40;;;9.80;99.90;;;;;;5014193;28;20434;-64
2021/03/23 11:23:24;;;;;;;14.87;9.10;;;10.00;99.90;;;;;;5012665;28;21122;-65
2021/03/23 11:25:49;;;;;;;9.33;6.57;;;10.10;99.90;;;;;;5010244;28;20432;-64
2021/03/23 11:28:19;;;;;;;10.20;7.10;;;10.10;99.90;;;;;;5012624;28;20501;-64
2021/03/23 11:30:45;;;;;;;10.03;6.33;;;9.90;99.90;;;;;;5013145;28;20646;-64
2021/03/23 11:33:15;;;;;;;12.87;7.40;;;9.90;99.90;;;;;;5013350;28;20457;-64
2021/03/23 11:35:47;;;;;;;10.63;7.37;;;9.90;99.90;;;;;;5010602;28;20418;-68
2021/03/23 11:38:14;;;;;;;8.80;7.90;;;9.80;99.90;;;;;;5013479;28;21021;-66
2021/03/23 11:40:39;;;;;;;8.27;7.43;;;9.80;99.90;;;;;;5006369;28;20483;-65
2021/03/23 11:43:07;;;;;;;9.40;8.40;;;9.70;99.90;;;;;;5013269;28;20422;-66
2021/03/23 11:45:38;;;;;;;8.00;6.80;;;9.90;99.90;;;;;;5006674;28;20598;-65
2021/03/23 11:48:09;;;;;;;10.17;6.80;;;9.90;99.90;;;;;;5012613;28;20537;-65
2021/03/23 11:50:35;;;;;;;9.70;6.33;;;10.00;99.90;;;;;;5009903;28;20644;-65
2021/03/23 11:53:02;;;;;;;8.93;6.23;;;10.10;99.90;;;;;;4992490;28;20508;-66
2021/03/23 11:55:31;;;;;;;11.00;9.13;;;10.10;99.90;;;;;;5007504;28;20458;-66
2021/03/23 11:57:57;;;;;;;9.10;7.17;;;10.00;99.90;;;;;;5008457;28;20508;-68
2021/03/23 12:00:29;;;;;;;9.77;6.90;;;9.90;99.90;;;;;;5012157;28;20470;-65
2021/03/23 12:02:55;;;;;;;7.17;6.47;;;9.90;99.90;;;;;;5006659;28;20952;-66
2021/03/23 12:05:22;;;;;;;10.83;7.57;;;9.70;99.90;;;;;;5010510;28;20516;-66
2021/03/23 12:08:22;;;;;;;9.03;7.50;;;9.60;99.90;;;;;;5007400;28;20465;-65
2021/03/23 12:10:56;;;;;;;11.90;8.57;;;9.60;99.90;;;;;;5008613;28;20436;-66
2021/03/23 12:13:47;;;;;;;11.00;8.20;;;9.60;99.90;;;;;;5008828;28;20805;-66
2021/03/23 12:16:17;;;;;;;9.73;8.13;;;9.50;99.90;;;;;;5009036;28;20449;-65
2021/03/23 12:18:55;;;;;;;11.90;8.97;;;9.60;99.90;;;;;;5010283;28;20426;-65
2021/03/23 12:21:22;;;;;;;8.60;6.47;;;10.10;99.90;;;;;;5010920;28;20453;-65
2021/03/23 12:23:48;;;;;;;10.70;8.80;;;10.20;99.90;;;;;;5007957;28;20438;-67
2021/03/23 12:26:14;;;;;;;9.97;7.40;;;10.10;99.90;;;;;;5012711;28;21178;-65
2021/03/23 12:28:41;;;;;;;11.80;6.73;;;10.10;99.90;;;;;;5013458;28;20183;-65
2021/03/23 12:31:07;;;;;;;9.67;8.37;;;10.00;99.90;;;;;;5004046;28;20489;-65
2021/03/23 12:33:33;;;;;;;9.67;7.63;;;10.10;99.90;;;;;;5004172;28;20484;-65
2021/03/23 12:35:59;;;;;;;14.30;7.40;;;10.00;99.90;;;;;;4994580;28;20467;-65
2021/03/23 12:38:24;;;;;;;20.20;11.10;;;10.00;99.90;;;;;;5001423;28;20178;-64
2021/03/23 12:40:49;;;;;;;11.40;9.23;;;10.00;99.90;;;;;;5012114;28;20237;-65
2021/03/23 12:43:23;;;;;;;11.40;8.80;;;9.90;99.90;;;;;;5011518;28;20329;-65
2021/03/23 12:45:50;;;;;;;12.10;10.27;;;9.80;99.90;;;;;;5012108;28;20174;-66
2021/03/23 12:48:16;;;;;;;12.50;9.40;;;9.80;99.90;;;;;;5008304;28;20809;-65
2021/03/23 12:50:43;;;;;;;11.10;8.77;;;9.80;99.90;;;;;;5007373;28;20963;-65
2021/03/23 12:53:13;;;;;;;16.67;10.20;;;9.80;99.90;;;;;;5012454;28;20965;-65
2021/03/23 12:55:42;;;;;;;14.30;11.13;;;9.80;99.90;;;;;;5012114;28;20521;-65
2021/03/23 12:58:14;;;;;;;15.23;11.27;;;9.80;99.90;;;;;;5009836;28;20480;-67
2021/03/23 13:00:40;;;;;;;13.63;11.13;;;9.90;99.90;;;;;;5011473;28;20434;-66
2021/03/23 13:03:11;;;;;;;16.30;10.53;;;9.90;99.90;;;;;;5011601;28;20456;-64
2021/03/23 13:05:37;;;;;;;14.30;10.83;;;9.90;99.90;;;;;;5010626;28;20430;-66